Time;durP1;ratioP1;P1;durP2;ratioP2;P2;SDS_P1;SDS_P2;PMS_P1;PMS_P2;Temp;Humidity;BMP_temperature;BMP_pressure;BME280_temperature;BME280_humidity;BME280_pressure;Samples;Min_cycle;Max_cycle;Signal;HPM_P1;HPM_P2
2021/04/30 00:00:07;;;;;;;28.07;23.27;;;8.30;90.30;;;;;;5071212;28;20392;-62
2021/04/30 00:02:33;;;;;;;30.50;23.80;;;8.30;90.20;;;;;;5052700;28;20039;-63
2021/04/30 00:04:59;;;;;;;28.97;23.27;;;8.30;90.50;;;;;;5070076;28;20127;-62
2021/04/30 00:07:24;;;;;;;31.13;24.37;;;8.30;90.30;;;;;;5070042;28;20046;-63
2021/04/30 00:09:50;;;;;;;30.47;22.90;;;8.30;90.20;;;;;;5070703;28;20040;-62
2021/04/30 00:12:16;;;;;;;29.87;24.53;;;8.30;90.20;;;;;;5070590;28;20044;-62
2021/04/30 00:14:41;;;;;;;31.53;24.33;;;8.30;90.20;;;;;;5034870;28;20472;-62
2021/04/30 00:17:07;;;;;;;28.77;24.20;;;8.30;90.20;;;;;;5070578;28;20037;-63
2021/04/30 00:19:34;;;;;;;31.07;25.40;;;8.30;90.30;;;;;;5070793;28;20043;-63
2021/04/30 00:21:59;;;;;;;30.73;24.60;;;8.30;90.30;;;;;;5070324;28;20083;-63
2021/04/30 00:24:25;;;;;;;30.07;24.37;;;8.30;90.20;;;;;;5052052;28;20033;-63
2021/04/30 00:26:51;;;;;;;31.27;25.63;;;8.30;90.20;;;;;;5069978;28;20059;-62
2021/04/30 00:29:16;;;;;;;32.13;25.50;;;8.30;90.20;;;;;;5052640;28;20040;-62
2021/04/30 00:31:42;;;;;;;32.87;25.67;;;8.30;90.20;;;;;;5056066;28;20029;-63
2021/04/30 00:34:08;;;;;;;33.57;26.57;;;8.30;90.20;;;;;;5073217;28;20477;-63
2021/04/30 00:36:34;;;;;;;32.37;26.00;;;8.30;90.30;;;;;;5074219;28;20040;-63
2021/04/30 00:39:02;;;;;;;35.03;28.60;;;8.30;90.40;;;;;;5055861;28;20063;-62
2021/04/30 00:41:28;;;;;;;36.07;28.10;;;8.30;90.40;;;;;;5074218;28;20044;-63
2021/04/30 00:43:53;;;;;;;33.83;27.73;;;8.30;90.40;;;;;;5073343;28;20036;-63
2021/04/30 00:46:19;;;;;;;30.97;26.20;;;8.30;90.40;;;;;;5073712;28;20036;-62
2021/04/30 00:48:45;;;;;;;34.77;26.73;;;8.30;90.50;;;;;;5074028;28;20132;-63
2021/04/30 00:51:11;;;;;;;33.83;27.73;;;8.30;90.50;;;;;;5073970;28;20032;-63
2021/04/30 00:53:36;;;;;;;34.17;27.07;;;8.30;90.50;;;;;;5073020;28;20082;-62
2021/04/30 00:56:02;;;;;;;36.17;29.03;;;8.40;90.50;;;;;;5074091;28;20044;-63
2021/04/30 00:58:28;;;;;;;38.80;29.30;;;8.40;90.50;;;;;;5073241;28;20414;-63
2021/04/30 01:00:53;;;;;;;36.43;27.80;;;8.40;90.50;;;;;;5039500;28;20032;-62
2021/04/30 01:03:20;;;;;;;34.10;27.43;;;8.40;90.50;;;;;;5073162;28;20056;-63
2021/04/30 01:05:45;;;;;;;35.03;27.90;;;8.40;90.50;;;;;;5073359;28;20067;-62
2021/04/30 01:08:11;;;;;;;35.30;28.03;;;8.40;90.50;;;;;;5055855;28;20033;-65
2021/04/30 01:10:37;;;;;;;35.00;27.30;;;8.40;90.40;;;;;;5073154;28;20089;-63
2021/04/30 01:13:02;;;;;;;36.83;29.73;;;8.40;90.50;;;;;;5055074;28;20507;-63
2021/04/30 01:15:28;;;;;;;36.30;28.83;;;8.40;90.50;;;;;;5073580;28;20120;-62
2021/04/30 01:17:54;;;;;;;36.07;29.47;;;8.40;90.60;;;;;;5072886;28;20040;-63
2021/04/30 01:20:20;;;;;;;31.67;26.43;;;8.40;90.50;;;;;;5073545;28;20055;-63
2021/04/30 01:22:51;;;;;;;36.67;28.60;;;8.40;90.50;;;;;;5055610;28;20131;-63
2021/04/30 01:25:26;;;;;;;34.67;28.23;;;8.40;90.60;;;;;;5073156;28;20078;-63
2021/04/30 01:27:52;;;;;;;34.93;27.87;;;8.40;90.60;;;;;;5073475;28;20452;-62
2021/04/30 01:30:22;;;;;;;35.13;28.13;;;8.40;90.50;;;;;;5073367;28;20033;-64
2021/04/30 01:32:48;;;;;;;36.95;29.42;;;8.40;90.50;;;;;;5074465;28;20035;-63
2021/04/30 01:35:29;;;;;;;35.40;27.50;;;8.40;90.60;;;;;;5074138;28;20045;-62
2021/04/30 01:37:56;;;;;;;36.07;28.63;;;8.40;90.60;;;;;;5074945;28;20117;-63
2021/04/30 01:40:27;;;;;;;35.97;29.13;;;8.40;90.60;;;;;;5073670;28;20044;-63
2021/04/30 01:43:06;;;;;;;35.70;29.07;;;8.50;90.60;;;;;;5071696;28;20037;-63
2021/04/30 01:45:40;;;;;;;37.40;29.73;;;8.50;90.60;;;;;;5054625;28;20040;-63
2021/04/30 01:48:13;;;;;;;34.10;28.33;;;8.50;90.60;;;;;;5021984;28;20393;-63
2021/04/30 01:50:40;;;;;;;38.30;29.77;;;8.40;90.60;;;;;;5054498;28;20545;-63
2021/04/30 01:53:07;;;;;;;34.30;28.70;;;8.40;90.60;;;;;;5072405;28;20847;-63
2021/04/30 01:55:33;;;;;;;35.60;29.20;;;8.40;90.60;;;;;;5054569;28;20047;-63
2021/04/30 01:57:59;;;;;;;34.60;28.50;;;8.50;90.60;;;;;;5072764;28;20040;-63
2021/04/30 02:00:27;;;;;;;37.67;29.13;;;8.40;90.60;;;;;;5072725;28;20408;-63
2021/04/30 02:02:55;;;;;;;35.60;29.27;;;8.50;90.60;;;;;;5071501;28;20071;-63
2021/04/30 02:05:23;;;;;;;36.80;29.43;;;8.50;90.60;;;;;;5072548;28;20040;-63
2021/04/30 02:07:50;;;;;;;32.67;26.13;;;8.50;90.60;;;;;;5054140;28;20117;-63
2021/04/30 02:10:19;;;;;;;35.67;28.80;;;8.40;90.50;;;;;;5072589;28;20469;-63
2021/04/30 02:12:46;;;;;;;37.37;30.30;;;8.40;90.60;;;;;;5072591;28;20036;-64
2021/04/30 02:15:14;;;;;;;36.43;29.53;;;8.40;90.70;;;;;;5054271;28;20501;-63
2021/04/30 02:17:40;;;;;;;34.77;27.97;;;8.40;90.60;;;;;;5072160;28;20046;-63
2021/04/30 02:20:08;;;;;;;35.17;28.60;;;8.40;90.70;;;;;;5054020;28;20040;-63
2021/04/30 02:22:35;;;;;;;33.70;27.47;;;8.40;90.60;;;;;;5072319;28;20037;-63
2021/04/30 02:25:02;;;;;;;35.23;27.90;;;8.40;90.70;;;;;;5071518;28;20036;-63
2021/04/30 02:27:28;;;;;;;35.97;29.20;;;8.40;90.70;;;;;;5071786;28;20036;-63
2021/04/30 02:29:53;;;;;;;32.13;26.57;;;8.40;90.70;;;;;;5072110;28;20106;-63
2021/04/30 02:32:19;;;;;;;35.40;28.50;;;8.40;90.70;;;;;;5053808;28;20562;-63
2021/04/30 02:34:45;;;;;;;33.57;26.90;;;8.40;90.70;;;;;;5071320;28;20382;-63
2021/04/30 02:37:11;;;;;;;33.97;26.53;;;8.40;90.70;;;;;;5072046;28;20082;-63
2021/04/30 02:39:37;;;;;;;34.20;27.07;;;8.40;90.70;;;;;;5053860;28;20048;-63
2021/04/30 02:42:04;;;;;;;36.57;29.30;;;8.40;90.70;;;;;;5067364;28;20060;-63
2021/04/30 02:44:29;;;;;;;33.97;26.83;;;8.40;90.70;;;;;;5052174;28;20036;-64
2021/04/30 02:46:55;;;;;;;32.07;26.67;;;8.40;90.70;;;;;;5053680;28;20089;-63
2021/04/30 02:49:37;;;;;;;32.60;27.03;;;8.40;90.80;;;;;;5071912;28;20045;-63
2021/04/30 02:52:04;;;;;;;33.07;26.63;;;8.40;90.80;;;;;;5071746;28;20024;-63
2021/04/30 02:54:30;;;;;;;36.97;29.70;;;8.40;90.80;;;;;;5071462;28;20036;-63
2021/04/30 02:56:56;;;;;;;36.13;28.73;;;8.40;90.80;;;;;;5070730;28;20041;-63
2021/04/30 02:59:21;;;;;;;34.80;27.20;;;8.40;90.70;;;;;;5072017;28;20504;-63
2021/04/30 03:01:47;;;;;;;36.17;28.60;;;8.40;90.70;;;;;;5071742;28;20032;-63
2021/04/30 03:04:13;;;;;;;35.63;28.07;;;8.40;90.80;;;;;;5036148;28;20043;-63
2021/04/30 03:06:38;;;;;;;35.67;29.73;;;8.40;90.70;;;;;;5071839;28;20043;-63
2021/04/30 03:09:04;;;;;;;36.67;28.33;;;8.40;90.80;;;;;;5070942;28;20452;-63
2021/04/30 03:11:30;;;;;;;34.97;27.83;;;8.40;90.80;;;;;;5071794;28;20040;-63
2021/04/30 03:13:55;;;;;;;34.73;26.90;;;8.40;90.70;;;;;;5070872;28;20123;-63
2021/04/30 03:16:21;;;;;;;33.43;26.63;;;8.40;91.00;;;;;;5071059;28;20036;-63
2021/04/30 03:18:47;;;;;;;33.10;25.73;;;8.40;90.70;;;;;;5070603;28;20032;-63
2021/04/30 03:21:12;;;;;;;33.30;26.10;;;8.30;90.70;;;;;;5036896;28;20500;-63
2021/04/30 03:23:38;;;;;;;32.10;25.83;;;8.30;90.70;;;;;;5052235;28;20102;-63
2021/04/30 03:26:04;;;;;;;30.23;24.70;;;8.30;90.70;;;;;;5053543;28;20066;-63
2021/04/30 03:28:29;;;;;;;30.90;24.63;;;8.30;90.70;;;;;;5052099;28;20036;-63
2021/04/30 03:30:55;;;;;;;28.83;23.00;;;8.30;90.70;;;;;;5071194;28;20071;-63
2021/04/30 03:33:21;;;;;;;30.67;22.83;;;8.30;90.60;;;;;;5052439;28;20400;-63
2021/04/30 03:35:46;;;;;;;28.03;22.60;;;8.30;90.60;;;;;;5070888;28;20033;-63
2021/04/30 03:38:12;;;;;;;29.07;22.80;;;8.20;90.70;;;;;;5070608;28;20036;-63
2021/04/30 03:40:38;;;;;;;27.43;21.50;;;8.20;90.80;;;;;;5070681;28;20037;-63
2021/04/30 03:43:03;;;;;;;26.07;19.80;;;8.20;90.80;;;;;;5070468;28;20060;-63
2021/04/30 03:45:29;;;;;;;26.43;20.20;;;8.20;90.80;;;;;;5070827;28;20093;-63
2021/04/30 03:47:55;;;;;;;27.40;21.80;;;8.30;90.80;;;;;;5051948;28;20037;-63
2021/04/30 03:50:21;;;;;;;27.13;21.67;;;8.20;90.70;;;;;;5053187;28;20122;-63
2021/04/30 03:52:46;;;;;;;28.53;21.93;;;8.30;90.80;;;;;;5052561;28;20040;-63
2021/04/30 03:55:12;;;;;;;26.07;20.97;;;8.20;90.70;;;;;;5052305;28;20052;-63
2021/04/30 03:57:38;;;;;;;24.93;20.10;;;8.20;90.70;;;;;;5069523;28;20495;-63
2021/04/30 04:00:05;;;;;;;26.23;21.07;;;8.30;90.70;;;;;;5052384;28;20427;-63
2021/04/30 04:02:37;;;;;;;25.50;21.17;;;8.30;90.70;;;;;;5071049;28;20040;-63
2021/04/30 04:05:04;;;;;;;27.47;21.70;;;8.30;90.80;;;;;;5071384;28;20037;-63
2021/04/30 04:07:29;;;;;;;28.73;22.07;;;8.30;90.80;;;;;;5073927;28;20068;-64
2021/04/30 04:09:55;;;;;;;27.27;21.97;;;8.30;90.80;;;;;;5074907;28;20067;-63
2021/04/30 04:12:21;;;;;;;26.63;20.57;;;8.30;90.70;;;;;;5056656;28;20029;-63
2021/04/30 04:14:46;;;;;;;25.47;20.07;;;8.30;90.70;;;;;;5074473;28;20438;-63
2021/04/30 04:17:16;;;;;;;27.73;22.07;;;8.30;90.70;;;;;;5074070;28;20036;-63
2021/04/30 04:19:48;;;;;;;27.73;22.97;;;8.30;90.70;;;;;;5085536;22;20150;-67
2021/04/30 04:22:14;;;;;;;28.10;21.90;;;8.30;90.70;;;;;;5102909;28;20036;-67
2021/04/30 04:24:41;;;;;;;26.70;21.60;;;8.30;90.70;;;;;;5101452;28;20509;-66
2021/04/30 04:27:07;;;;;;;27.47;22.53;;;8.40;90.80;;;;;;5082710;28;20488;-66
2021/04/30 04:29:33;;;;;;;27.60;20.60;;;8.40;90.80;;;;;;5101456;28;20036;-67
2021/04/30 04:31:59;;;;;;;26.70;21.13;;;8.40;90.70;;;;;;5076137;28;20433;-66
2021/04/30 04:34:25;;;;;;;27.17;21.27;;;8.40;90.70;;;;;;5076476;28;20055;-67
2021/04/30 04:36:51;;;;;;;30.13;23.67;;;8.40;90.70;;;;;;5078618;28;20020;-66
2021/04/30 04:39:16;;;;;;;30.13;24.17;;;8.40;90.70;;;;;;5046347;28;20040;-66
2021/04/30 04:41:42;;;;;;;31.20;24.77;;;8.40;90.70;;;;;;5076799;28;20035;-67
2021/04/30 04:44:08;;;;;;;33.70;26.00;;;8.50;90.70;;;;;;5073712;28;20039;-67
2021/04/30 04:46:33;;;;;;;32.87;25.57;;;8.50;90.80;;;;;;5056341;28;20059;-67
2021/04/30 04:48:59;;;;;;;31.43;25.43;;;8.50;90.80;;;;;;5073768;28;20102;-66
2021/04/30 04:51:24;;;;;;;30.90;24.80;;;8.50;90.70;;;;;;5070993;28;20028;-67
2021/04/30 04:53:50;;;;;;;29.17;23.83;;;8.50;90.70;;;;;;5075421;28;20039;-66
2021/04/30 04:56:17;;;;;;;28.57;22.23;;;8.50;90.70;;;;;;5093471;28;20514;-66
2021/04/30 04:58:42;;;;;;;29.17;24.93;;;8.50;90.60;;;;;;5091853;28;20115;-66
2021/04/30 05:01:08;;;;;;;28.80;23.17;;;8.50;90.70;;;;;;5090253;28;20111;-66
2021/04/30 05:03:34;;;;;;;30.50;24.63;;;8.50;90.70;;;;;;5073723;28;20052;-63
2021/04/30 05:06:00;;;;;;;31.00;24.27;;;8.50;90.80;;;;;;5093752;28;20040;-67
2021/04/30 05:08:25;;;;;;;34.10;26.67;;;8.60;90.80;;;;;;5093226;28;20110;-66
2021/04/30 05:10:51;;;;;;;34.90;27.53;;;8.60;90.80;;;;;;5089997;28;20123;-66
2021/04/30 05:13:17;;;;;;;33.33;27.07;;;8.70;90.80;;;;;;5091897;28;20089;-66
2021/04/30 05:15:42;;;;;;;36.40;30.00;;;8.70;90.80;;;;;;5092655;28;20119;-66
2021/04/30 05:18:08;;;;;;;41.57;31.10;;;8.80;90.80;;;;;;5081653;28;20021;-66
2021/04/30 05:20:34;;;;;;;32.93;26.73;;;8.80;90.80;;;;;;5065127;28;20535;-67
2021/04/30 05:23:00;;;;;;;35.60;29.00;;;8.80;90.70;;;;;;5073876;28;20502;-66
2021/04/30 05:25:26;;;;;;;32.83;26.73;;;8.90;90.80;;;;;;5093768;28;20046;-66
2021/04/30 05:27:52;;;;;;;35.50;27.87;;;8.90;90.70;;;;;;5075124;28;20032;-66
2021/04/30 05:30:17;;;;;;;32.30;26.37;;;9.00;90.70;;;;;;5068618;28;20405;-66
2021/04/30 05:32:43;;;;;;;32.53;27.30;;;9.00;90.70;;;;;;5061015;28;20040;-69
2021/04/30 05:35:11;;;;;;;33.37;27.03;;;9.10;90.60;;;;;;5073563;28;20131;-66
2021/04/30 05:37:37;;;;;;;32.87;25.93;;;9.10;90.50;;;;;;5073512;28;20539;-66
2021/04/30 05:40:03;;;;;;;32.50;24.80;;;9.10;90.40;;;;;;5071911;28;20044;-66
2021/04/30 05:42:29;;;;;;;31.47;26.03;;;9.10;90.40;;;;;;5055285;28;20040;-66
2021/04/30 05:44:55;;;;;;;32.43;26.07;;;9.10;90.40;;;;;;5072117;28;20036;-66
2021/04/30 05:47:23;;;;;;;29.13;24.20;;;9.20;90.40;;;;;;5086921;28;20048;-66
2021/04/30 05:49:48;;;;;;;30.83;25.47;;;9.20;90.40;;;;;;5085304;28;20054;-66
2021/04/30 05:52:14;;;;;;;29.53;24.57;;;9.20;90.50;;;;;;5072347;28;20124;-63
2021/04/30 05:54:41;;;;;;;29.43;24.93;;;9.30;90.50;;;;;;5054177;28;20044;-67
2021/04/30 05:57:07;;;;;;;27.10;23.25;;;9.40;90.60;;;;;;5072940;28;20070;-67
2021/04/30 05:59:32;;;;;;;26.40;22.10;;;9.50;90.50;;;;;;5044945;28;20504;-66
2021/04/30 06:01:58;;;;;;;29.58;23.27;;;9.60;90.40;;;;;;5066827;28;20484;-66
2021/04/30 06:04:26;;;;;;;26.67;21.48;;;9.70;90.40;;;;;;5070413;28;20119;-66
2021/04/30 06:06:52;;;;;;;27.85;23.13;;;9.80;90.30;;;;;;5071024;28;20064;-66
2021/04/30 06:09:18;;;;;;;25.65;22.13;;;9.90;90.20;;;;;;5054193;28;20051;-65
2021/04/30 06:11:44;;;;;;;27.63;22.50;;;9.90;90.10;;;;;;5054145;28;20033;-66
2021/04/30 06:14:11;;;;;;;25.70;22.23;;;10.00;90.10;;;;;;5071821;28;20106;-65
2021/04/30 06:16:37;;;;;;;28.15;23.10;;;10.00;90.10;;;;;;5072053;28;20032;-66
2021/04/30 06:19:03;;;;;;;25.60;21.65;;;10.10;90.20;;;;;;5070683;28;20065;-66
2021/04/30 06:21:29;;;;;;;24.00;19.77;;;10.30;90.20;;;;;;5072172;28;20128;-63
2021/04/30 06:23:55;;;;;;;24.40;20.48;;;10.40;89.80;;;;;;5070939;28;20115;-63
2021/04/30 06:26:20;;;;;;;24.55;19.00;;;10.50;89.10;;;;;;5072259;28;20488;-66
2021/04/30 06:28:46;;;;;;;23.80;19.20;;;10.50;88.80;;;;;;5053470;28;20430;-66
2021/04/30 06:31:12;;;;;;;24.85;20.63;;;10.40;87.60;;;;;;5053041;28;20044;-66
2021/04/30 06:33:38;;;;;;;21.40;18.20;;;10.40;88.00;;;;;;5036946;28;20064;-66
2021/04/30 06:36:04;;;;;;;23.80;18.83;;;10.40;88.00;;;;;;5071538;28;20032;-65
2021/04/30 06:38:30;;;;;;;21.63;18.27;;;10.40;88.70;;;;;;5071778;28;20601;-66
2021/04/30 06:40:55;;;;;;;20.70;17.35;;;10.60;88.80;;;;;;5070992;28;20119;-66
2021/04/30 06:43:21;;;;;;;15.77;13.85;;;11.60;91.70;;;;;;5052510;28;20127;-66
2021/04/30 06:45:47;;;;;;;16.45;13.98;;;13.10;93.10;;;;;;5071626;28;20035;-65
2021/04/30 06:48:13;;;;;;;17.63;15.50;;;14.10;90.30;;;;;;5071670;28;20090;-66
2021/04/30 06:50:38;;;;;;;17.00;15.20;;;14.20;86.00;;;;;;5070311;28;20048;-66
2021/04/30 06:53:04;;;;;;;17.60;15.55;;;14.00;83.90;;;;;;5070697;28;20524;-66
2021/04/30 06:55:30;;;;;;;18.58;15.48;;;13.70;82.10;;;;;;5070859;28;20047;-65
2021/04/30 06:57:56;;;;;;;17.75;15.70;;;13.40;80.90;;;;;;5070591;28;20512;-66
2021/04/30 07:00:22;;;;;;;17.00;15.20;;;13.00;80.20;;;;;;5052771;28;20033;-65
2021/04/30 07:02:48;;;;;;;19.58;16.35;;;12.80;80.20;;;;;;5073201;28;20039;-65
2021/04/30 07:05:14;;;;;;;19.02;16.00;;;12.50;80.00;;;;;;5090145;28;20523;-68
2021/04/30 07:07:41;;;;;;;19.27;15.63;;;12.30;79.90;;;;;;5090838;28;20400;-67
2021/04/30 07:10:09;;;;;;;18.80;15.20;;;12.20;80.00;;;;;;5088114;28;20070;-65
2021/04/30 07:12:38;;;;;;;18.90;15.98;;;12.10;80.30;;;;;;5073008;28;20032;-66
2021/04/30 07:15:08;;;;;;;17.33;15.00;;;12.10;80.50;;;;;;5089857;28;20400;-66
2021/04/30 07:17:35;;;;;;;16.50;14.70;;;12.20;80.30;;;;;;5090763;28;20089;-65
2021/04/30 07:20:04;;;;;;;16.10;14.30;;;12.20;79.60;;;;;;5081515;28;20393;-65
2021/04/30 07:22:30;;;;;;;20.77;15.18;;;12.30;79.60;;;;;;5070312;28;20036;-66
2021/04/30 07:24:56;;;;;;;16.08;13.80;;;12.40;79.90;;;;;;5070196;28;20455;-66
2021/04/30 07:27:23;;;;;;;18.40;14.35;;;12.50;79.10;;;;;;5035870;28;20037;-66
2021/04/30 07:29:49;;;;;;;15.65;13.93;;;12.60;78.90;;;;;;5070138;28;20044;-65
2021/04/30 07:32:14;;;;;;;15.88;13.05;;;12.70;78.90;;;;;;5070486;28;20450;-65
2021/04/30 07:34:41;;;;;;;18.27;13.63;;;12.70;78.30;;;;;;5069185;28;20033;-65
2021/04/30 07:37:07;;;;;;;13.77;11.55;;;12.70;77.10;;;;;;5052379;28;20066;-64
2021/04/30 07:39:34;;;;;;;17.05;12.55;;;12.60;76.40;;;;;;5068514;28;20033;-64
2021/04/30 07:42:00;;;;;;;15.02;12.55;;;12.50;76.20;;;;;;5069958;28;20029;-68
2021/04/30 07:44:26;;;;;;;15.35;12.73;;;12.30;76.00;;;;;;5069775;28;20608;-66
2021/04/30 07:46:52;;;;;;;16.08;12.05;;;12.20;76.00;;;;;;5019895;28;20158;-67
2021/04/30 07:49:18;;;;;;;13.65;11.68;;;12.20;76.30;;;;;;5068845;28;20167;-68
2021/04/30 07:51:44;;;;;;;13.93;10.98;;;12.30;75.90;;;;;;5069655;28;20024;-65
2021/04/30 07:54:11;;;;;;;14.63;11.23;;;12.30;75.30;;;;;;5051300;28;20056;-66
2021/04/30 07:56:37;;;;;;;13.55;10.90;;;12.30;75.00;;;;;;5067854;28;20784;-66
2021/04/30 07:59:03;;;;;;;13.95;11.32;;;12.30;75.20;;;;;;5067605;28;20064;-65
2021/04/30 08:01:30;;;;;;;14.88;11.60;;;12.40;75.30;;;;;;5070236;28;20619;-66
2021/04/30 08:03:55;;;;;;;13.98;12.13;;;12.30;75.10;;;;;;5071245;28;20032;-65
2021/04/30 08:06:22;;;;;;;16.85;12.70;;;12.30;74.50;;;;;;5068977;28;20029;-66
2021/04/30 08:08:47;;;;;;;16.67;12.60;;;12.10;74.20;;;;;;5068741;28;20035;-66
2021/04/30 08:11:13;;;;;;;15.98;13.02;;;12.10;74.20;;;;;;5059217;28;20040;-66
2021/04/30 08:13:39;;;;;;;14.73;12.40;;;11.90;73.90;;;;;;5051160;28;20056;-68
2021/04/30 08:16:05;;;;;;;16.08;12.45;;;11.70;74.40;;;;;;5069145;28;20441;-69
2021/04/30 08:18:31;;;;;;;16.58;12.60;;;11.60;74.50;;;;;;5051643;28;20476;-68
2021/04/30 08:20:57;;;;;;;15.82;11.95;;;11.60;74.60;;;;;;5069672;28;20466;-68
2021/04/30 08:23:23;;;;;;;13.88;10.63;;;11.60;75.20;;;;;;5068616;28;20088;-69
2021/04/30 08:25:49;;;;;;;13.23;10.77;;;11.70;75.30;;;;;;5048652;28;20522;-65
2021/04/30 08:28:15;;;;;;;14.00;10.18;;;11.80;75.40;;;;;;5080808;28;20041;-66
2021/04/30 08:30:41;;;;;;;12.82;10.20;;;11.90;75.60;;;;;;5068523;28;20476;-66
2021/04/30 08:33:07;;;;;;;14.05;10.18;;;12.20;76.30;;;;;;5050683;28;20403;-66
2021/04/30 08:35:32;;;;;;;14.27;10.07;;;12.60;76.90;;;;;;5069131;28;20041;-66
2021/04/30 08:37:59;;;;;;;11.02;8.93;;;13.10;76.60;;;;;;5051531;28;20048;-66
2021/04/30 08:40:25;;;;;;;11.10;9.05;;;13.50;75.40;;;;;;5051854;28;20081;-66
2021/04/30 08:42:51;;;;;;;11.20;9.13;;;13.70;73.90;;;;;;5069036;28;20036;-66
2021/04/30 08:45:18;;;;;;;11.98;8.43;;;13.80;72.40;;;;;;5069563;28;20523;-66
2021/04/30 08:47:45;;;;;;;11.27;9.10;;;13.60;70.80;;;;;;5069238;28;20516;-66
2021/04/30 08:50:12;;;;;;;12.38;9.93;;;13.40;70.40;;;;;;5051198;28;20405;-66
2021/04/30 08:52:39;;;;;;;14.10;10.18;;;13.30;70.40;;;;;;5072770;28;20571;-66
2021/04/30 08:55:12;;;;;;;10.52;8.10;;;13.20;70.30;;;;;;5071797;28;20032;-66
2021/04/30 08:57:38;;;;;;;10.55;8.07;;;13.10;69.60;;;;;;5072063;28;20032;-66
2021/04/30 09:00:06;;;;;;;12.38;9.55;;;13.10;71.00;;;;;;5078600;28;20066;-66
2021/04/30 09:02:39;;;;;;;11.50;9.00;;;13.50;72.10;;;;;;5086699;28;20467;-66
2021/04/30 09:05:11;;;;;;;11.02;8.50;;;14.20;71.70;;;;;;5054250;28;20052;-67
2021/04/30 09:07:42;;;;;;;10.25;8.25;;;14.80;70.60;;;;;;5072459;28;20472;-66
2021/04/30 09:10:12;;;;;;;;;;;15.30;69.60;;;;;;5078427;28;20067;-67
2021/04/30 09:12:39;;;;;;;11.32;8.23;;;15.50;67.90;;;;;;5072334;28;19913;-67
2021/04/30 09:15:07;;;;;;;11.02;7.78;;;15.60;67.90;;;;;;5054854;28;20101;-66
2021/04/30 09:17:34;;;;;;;8.60;6.40;;;15.90;68.30;;;;;;5054472;28;20033;-68
2021/04/30 09:20:03;;;;;;;9.52;7.50;;;16.40;68.70;;;;;;5054352;28;20060;-67
2021/04/30 09:22:46;;;;;;;8.90;6.82;;;16.90;67.50;;;;;;5085921;28;20040;-67
2021/04/30 09:25:16;;;;;;;10.20;8.48;;;17.20;65.70;;;;;;5069892;28;20035;-66
2021/04/30 09:27:48;;;;;;;10.80;8.07;;;17.40;64.00;;;;;;5089454;28;20109;-66
2021/04/30 09:30:26;;;;;;;8.93;7.10;;;17.70;63.20;;;;;;5086060;28;20046;-67
2021/04/30 09:33:12;;;;;;;9.77;7.70;;;18.10;62.80;;;;;;5087713;28;20082;-68
2021/04/30 09:35:41;;;;;;;9.23;7.40;;;18.90;61.90;;;;;;5088619;28;20109;-66
2021/04/30 09:38:32;;;;;;;9.82;7.07;;;19.40;59.90;;;;;;5076223;28;20052;-67
2021/04/30 09:41:00;;;;;;;8.82;6.88;;;19.70;58.20;;;;;;5071791;28;20143;-67
2021/04/30 09:43:47;;;;;;;9.48;7.15;;;20.40;56.40;;;;;;5054138;28;20043;-66
2021/04/30 09:46:28;;;;;;;10.85;7.07;;;20.50;53.50;;;;;;5077549;28;20121;-68
2021/04/30 09:49:04;;;;;;;11.70;6.90;;;19.80;52.20;;;;;;5069934;28;20605;-68
2021/04/30 09:51:46;;;;;;;9.23;6.22;;;19.70;54.20;;;;;;5068932;28;20032;-69
2021/04/30 09:54:32;;;;;;;7.70;5.35;;;21.60;55.60;;;;;;5069259;28;20054;-68
2021/04/30 09:57:11;;;;;;;9.20;5.93;;;24.10;54.20;;;;;;5081006;28;20043;-68
2021/04/30 09:59:42;;;;;;;7.47;5.53;;;24.80;49.60;;;;;;5071336;28;20515;-68
2021/04/30 10:02:11;;;;;;;7.47;5.22;;;25.60;48.10;;;;;;5069718;28;20037;-70
2021/04/30 10:04:39;;;;;;;6.88;5.03;;;25.60;45.60;;;;;;5068358;28;20029;-69
2021/04/30 10:07:06;;;;;;;7.50;5.60;;;26.00;45.70;;;;;;5072862;28;20056;-64
2021/04/30 10:09:33;;;;;;;7.13;5.28;;;26.10;43.70;;;;;;5068885;28;20032;-65
2021/04/30 10:12:21;;;;;;;6.68;4.57;;;27.10;43.40;;;;;;5053255;28;20037;-65
2021/04/30 10:14:47;;;;;;;7.00;5.25;;;28.60;41.60;;;;;;5070271;28;20395;-65
2021/04/30 10:17:14;;;;;;;8.68;5.60;;;28.80;37.60;;;;;;5070849;28;20032;-68
2021/04/30 10:19:41;;;;;;;7.38;5.22;;;27.40;34.60;;;;;;5075988;28;20044;-68
2021/04/30 10:22:22;;;;;;;7.20;5.43;;;25.70;34.70;;;;;;5059719;28;20127;-68
2021/04/30 10:24:56;;;;;;;6.78;5.18;;;24.70;36.80;;;;;;5084951;28;20067;-67
2021/04/30 10:27:27;;;;;;;7.93;5.60;;;24.00;37.10;;;;;;5081090;28;20461;-68
2021/04/30 10:30:17;;;;;;;7.30;5.78;;;23.10;36.80;;;;;;5083455;28;20036;-67
2021/04/30 10:32:51;;;;;;;8.48;5.45;;;21.60;37.40;;;;;;5041442;28;20028;-68
2021/04/30 10:35:54;;;;;;;7.38;5.47;;;20.50;38.30;;;;;;5090701;28;20032;-68
2021/04/30 10:38:23;;;;;;;9.27;6.40;;;19.50;39.80;;;;;;5058862;28;20416;-67
2021/04/30 10:41:06;;;;;;;8.07;6.38;;;18.80;40.30;;;;;;5090582;28;20425;-66
2021/04/30 10:43:33;;;;;;;8.57;6.55;;;18.00;41.20;;;;;;5053133;28;20020;-66
2021/04/30 10:46:14;;;;;;;10.00;7.22;;;17.30;42.10;;;;;;5072490;28;20438;-67
2021/04/30 10:49:07;;;;;;;9.00;6.65;;;16.80;43.10;;;;;;5068990;28;20550;-67
2021/04/30 10:51:34;;;;;;;8.40;6.25;;;16.50;44.30;;;;;;5070033;28;20154;-67
2021/04/30 10:54:23;;;;;;;8.13;6.15;;;16.40;44.80;;;;;;5070232;28;20038;-69
2021/04/30 10:56:57;;;;;;;8.90;6.03;;;16.40;46.00;;;;;;5087529;28;20070;-67
2021/04/30 10:59:35;;;;;;;7.53;5.95;;;16.60;46.60;;;;;;5090275;28;20032;-67
2021/04/30 11:02:24;;;;;;;8.45;5.72;;;17.00;47.10;;;;;;5065861;28;20125;-67
2021/04/30 11:05:11;;;;;;;8.02;5.18;;;18.90;48.10;;;;;;5058757;28;20495;-67
2021/04/30 11:07:40;;;;;;;8.00;5.03;;;21.10;46.60;;;;;;5085941;28;20047;-68
2021/04/30 11:10:21;;;;;;;7.53;4.95;;;21.50;43.10;;;;;;5082075;28;20070;-67
2021/04/30 11:12:54;;;;;;;7.78;5.03;;;20.80;40.90;;;;;;5082830;28;20077;-67
2021/04/30 11:15:20;;;;;;;7.15;4.88;;;20.10;41.00;;;;;;5086103;28;20032;-68
2021/04/30 11:17:56;;;;;;;6.22;4.22;;;19.90;42.30;;;;;;5068249;28;20476;-67
2021/04/30 11:20:28;;;;;;;7.53;4.50;;;20.60;43.20;;;;;;5055392;28;20040;-69
2021/04/30 11:23:24;;;;;;;7.28;5.28;;;22.90;44.10;;;;;;5047546;28;20683;-68
2021/04/30 11:28:24;;;;;;;7.57;5.25;;;25.10;37.30;;;;;;5078859;28;20035;-67
2021/04/30 11:31:09;;;;;;;6.45;4.85;;;24.50;35.80;;;;;;5075111;28;20061;-68
2021/04/30 11:33:37;;;;;;;6.10;4.47;;;25.20;35.30;;;;;;5040717;28;20064;-67
2021/04/30 11:36:04;;;;;;;7.60;5.57;;;25.70;35.80;;;;;;5070777;28;20503;-66
2021/04/30 11:38:38;;;;;;;7.22;5.20;;;25.10;32.60;;;;;;5070445;28;20405;-67
2021/04/30 11:41:09;;;;;;;7.57;5.30;;;24.10;32.70;;;;;;5077919;28;20037;-66
2021/04/30 11:43:36;;;;;;;7.57;5.10;;;23.40;33.20;;;;;;5084450;28;20116;-67
2021/04/30 11:46:02;;;;;;;6.65;5.03;;;22.60;33.00;;;;;;5068881;28;20043;-67
2021/04/30 11:48:30;;;;;;;7.10;5.40;;;21.80;33.10;;;;;;5069644;28;20028;-67
2021/04/30 11:51:08;;;;;;;7.28;4.90;;;21.00;34.00;;;;;;5087387;28;20065;-66
2021/04/30 11:53:36;;;;;;;8.35;5.65;;;20.30;34.20;;;;;;5078850;28;20036;-67
2021/04/30 11:56:03;;;;;;;6.80;4.97;;;19.60;34.70;;;;;;5085739;28;20040;-66
2021/04/30 11:58:43;;;;;;;7.80;4.93;;;19.10;35.40;;;;;;5081452;28;20555;-66
2021/04/30 12:01:11;;;;;;;;;;;18.50;35.80;;;;;;5070828;28;20064;-67
2021/04/30 12:03:48;;;;;;;7.70;5.40;;;18.00;36.60;;;;;;5050231;28;19912;-67
2021/04/30 12:06:18;;;;;;;8.43;5.32;;;17.50;37.90;;;;;;5069036;28;20037;-67
2021/04/30 12:08:45;;;;;;;8.02;5.85;;;17.20;39.00;;;;;;5043981;28;20051;-66
2021/04/30 12:11:28;;;;;;;8.45;6.13;;;16.90;39.90;;;;;;5087443;28;20488;-67
2021/04/30 12:13:55;;;;;;;8.32;6.30;;;16.70;40.80;;;;;;5052020;28;20036;-66
2021/04/30 12:16:22;;;;;;;8.95;6.43;;;16.50;41.20;;;;;;5069830;28;20086;-67
2021/04/30 12:18:49;;;;;;;8.93;5.97;;;16.30;41.80;;;;;;5051075;28;20420;-67
2021/04/30 12:21:44;;;;;;;9.15;6.53;;;16.10;42.80;;;;;;5069349;28;20048;-66
2021/04/30 12:24:10;;;;;;;8.40;6.07;;;16.10;43.50;;;;;;5038470;28;20041;-67
2021/04/30 12:26:36;;;;;;;9.50;6.70;;;16.10;43.50;;;;;;5052578;28;20033;-67
2021/04/30 12:29:08;;;;;;;9.15;6.10;;;16.10;44.00;;;;;;5069027;28;20689;-67
2021/04/30 12:31:35;;;;;;;8.05;6.00;;;16.20;44.30;;;;;;5070050;28;20094;-68
2021/04/30 12:34:01;;;;;;;8.90;6.00;;;16.30;44.30;;;;;;5072020;28;20032;-66
2021/04/30 12:36:30;;;;;;;9.35;6.85;;;16.30;44.70;;;;;;5072306;28;20107;-67
2021/04/30 12:38:58;;;;;;;9.82;7.05;;;16.40;44.80;;;;;;5074550;28;20040;-66
2021/04/30 12:41:30;;;;;;;10.52;7.68;;;16.40;44.10;;;;;;5072445;28;20082;-66
2021/04/30 12:43:59;;;;;;;10.18;7.20;;;16.30;44.20;;;;;;5071804;28;20472;-67
2021/04/30 12:46:36;;;;;;;9.93;7.55;;;16.30;44.00;;;;;;5072699;28;20037;-67